Coleman, FL

7:23 PM EDT on July 29, 2016 (GMT -0400)
Sumterville | | Change Station

Elev 108 ft 28.74 °N, 82.06 °W | Updated 24 seconds ago

Overcast
Overcast
81.3 °F
Feels Like 87 °F
N
0.0
Wind Variable Wind from SE
Gusts 0.0 mph

Today
High -- | Low -- °F
--% Chance of Precip.
Yesterday
High -- | Low -- °F
Precip. -- in
Pressure 30.03 in
Visibility 10.0 miles
Clouds Clear
Heat Index 87 °F
Dew Point 74 °F
Humidity 79%
Rainfall 0.19 in
Snow Depth Not available.
6:48 AM 8:21 PM
Waning Crescent, 18% visible
METAR KINF 292315Z AUTO 00000KT 10SM TS CLR 29/25 A3003 RMK AO2 LTG DSNT SW THRU NW
Pressure 30.03 in
Visibility 10.0 miles
Clouds Clear
Heat Index 87 °F
Dew Point 74 °F
Humidity 79%
Rainfall 0.19 in
Snow Depth Not available.
6:48 AM 8:21 PM
Waning Crescent, 18% visible
METAR KINF 292315Z AUTO 00000KT 10SM TS CLR 29/25 A3003 RMK AO2 LTG DSNT SW THRU NW

10-Day Weather Forecast

Almanac

Astronomy

Jul. 29, 2016 Rise Set
Actual Time
Civil Twilight
Nautical Twilight
Astronomical Twilight
Moon
Length of Visible Light
Length of Day
Tomorrow will be .
, % of the Moon is Illuminated

Today's Extremes

State Highs State Lows

Community

WunderPhotos

Upload Photos

1,928,439 photos uploaded!

WunderBlog® & News

Nearby

Air Quality

  Air Quality AQ Index Pollutant
Not available.

Snow Depth

Station Depth Elevation

Earthquake Activity

City Distance Mag. Time & Date
Minimum magnitude displayed is 2.5.

Coastal Water Temperatures

Place Temperature

Stations

Nearby Weather Stations

Station Location Temp. Windchill Dew Point Humidity Wind Precip. Elev Updated Type
                   

Watches & Warnings

There are currently no watches in effect.